首页
METAR-TAF:

METAR-TAF

机场 :

Houma-Terrebonne Airport

霍玛, 路易斯安那州, 美国

纬度: 29-34N, 经度: 090-40W, 海拔: 3米

当前天气观测

该预报发布于40分钟前的20:47 UTC
风速8节,风向东转东北
温度 19°C
湿度 37%
气压 1028 hPa
能見度: 11.3公里
天空无云

METAR: KHUM 072047Z 06008KT 7SM CLR 19/04 A3035

时间: 15:27 (21:27 UTC)

预报

该预报发布于3小时和59分钟前的17:28 UTC
预报有效从07日的 18点(UTC)到 08日的 18点(UTC)
风速10节,风向东北
能見度: 10公里
天空无云
从 07日的 2100点(UTC)
风速8节,风向东转东北
能見度: 10公里
天空无云
从 08日的 0100点(UTC)
风速3节,风向多变
能見度: 10公里
天空无云
从 08日的 1400点(UTC)
风速8节,风向东转东北
能見度: 10公里
天空无云

TAF: KHUM 071728Z 0718/0818 04010KT P6SM SKC FM072100 07008KT P6SM SKC FM080100 VRB03KT P6SM SKC FM081400 06008KT P6SM SKC

超过4000个机场的气象观测和天气预报(METAR&TAF报告)。

可查询的气象台以黄色和红色小点在地图上表示。

将鼠标移到小点上方,可查看气象台名称。

然后点击查看天气观测和预报。

如需切换地图:点击带黑十字的绿色按钮放大地图;点击带横线的绿色按钮缩小地图;或者点击绿色箭头查看邻近地区的地图。


METAR-TAF: